Terminal Aerodrome Forecast
Issued by NWS Tulsa, OK

Home | Current Version | Previous Version | Text Only | Print | Product List | Glossary On
Versions: 1 2 3 4 5 6 7 8 9 10 11 12 13
000
FTUS44 KTSA 201700
TAFTUL
TAF
KTUL 201739Z 2018/2118 17010G18KT P6SM VCSH SCT050 BKN100
     FM210200 17007KT P6SM SHRA OVC050 PROB30 2103/2107 4SM -TSRA
      BKN015 OVC025CB
     FM210700 17006KT 5SM SHRA OVC025
     FM211200 18005KT 6SM BR VCSH OVC015=

USA.gov is the U.S. government's official web portal to all federal, state and local government web resources and services.